Tecumseh, Canada
Current Conditions -  °F | °C
As of 11:00 AM on Thursday 30 Oct 2014 (Local Time) from CYQG Reporting Station
Few Clouds Few Clouds  
Wind Chill: 45°   Ceiling: Unl
Heat Index: 45°   Visibility: 15mi
Dew Point: 32°   Wind: 3mph
Humidity: 61%   Direction: 330°NNW
Pressure: 30.14"   Gusts: NA
Location:  42.32°N, 82.89°W
Report Text: CYQG 301500Z 33003KT 15SM FEW024 FEW280 07/00 A3014 RMK SC1CI1 CONTRAILS SLP210
Loading
Personal Weather Stations






























Interactive Weather Map New forecast layout! Learn more

10-Day Weather Forecast

Advertisements
Track Severe Weather on mobile